Terminal Aerodrome Forecast
Issued by NWS Twin Cities, MN

Home | Current Version | Previous Version | Graphics & Text | Print | Product List | Glossary On
Versions: 1 2 3 4 5 6 7 8 9 10 11 12 13 14 15 16 17 18 19 20 21 22
000
FTUS43 KMPX 151150 CCA
TAFSTC
TAF COR
KSTC 151150Z 1512/1612 04003KT 1/2SM FG VV001
      TEMPO 1512/1514 3SM BR SCT002
     FM151400 09004KT P6SM BKN250
     FM151900 13008KT P6SM BKN120 OVC250
     FM160200 11005KT P6SM OVC100
     FM160600 11007KT P6SM VCSH OVC050
     FM160900 12008KT 5SM SHRA OVC020=

USA.gov is the U.S. government's official web portal to all federal, state and local government web resources and services.